Time;durP1;ratioP1;P1;durP2;ratioP2;P2;SDS_P1;SDS_P2;PMS_P1;PMS_P2;Temp;Humidity;BMP_temperature;BMP_pressure;BME280_temperature;BME280_humidity;BME280_pressure;Samples;Min_cycle;Max_cycle;Signal;HPM_P1;HPM_P2
2023/04/22 00:01:23;;;;;;;3.37;1.90;;;;;;;18.42;58.97;99591.66;5070734;28;20186;-61
2023/04/22 00:03:49;;;;;;;4.90;2.30;;;;;;;18.40;58.83;99594.91;5088556;28;20197;-61
2023/04/22 00:06:14;;;;;;;3.50;2.17;;;;;;;18.42;58.75;99595.34;5071937;28;20445;-62
2023/04/22 00:08:40;;;;;;;2.93;1.77;;;;;;;18.40;58.75;99592.06;5070553;28;20505;-61
2023/04/22 00:11:05;;;;;;;4.13;1.70;;;;;;;18.41;59.19;99579.41;5051244;28;20179;-61
2023/04/22 00:13:31;;;;;;;3.33;1.57;;;;;;;18.38;58.70;99576.53;5069478;28;20174;-61
2023/04/22 00:15:56;;;;;;;4.03;1.67;;;;;;;18.39;58.90;99578.16;5050822;28;20207;-61
2023/04/22 00:18:22;;;;;;;2.80;1.60;;;;;;;18.41;59.18;99575.75;5082383;28;20193;-61
2023/04/22 00:20:47;;;;;;;3.27;1.90;;;;;;;18.39;59.27;99572.44;5090449;28;20622;-61
2023/04/22 00:23:13;;;;;;;3.90;1.97;;;;;;;18.42;59.08;99568.81;5064744;28;20190;-61
2023/04/22 00:25:39;;;;;;;3.20;1.60;;;;;;;18.40;59.01;99576.94;5052289;28;20611;-61
2023/04/22 00:28:05;;;;;;;2.63;1.80;;;;;;;18.41;58.81;99579.41;5035679;28;20543;-62
2023/04/22 00:30:30;;;;;;;3.40;2.20;;;;;;;18.42;59.15;99583.91;5072940;28;20464;-61
2023/04/22 00:32:55;;;;;;;3.07;1.73;;;;;;;18.37;58.96;99584.28;5052288;28;20179;-61
2023/04/22 00:35:21;;;;;;;2.80;1.80;;;;;;;18.42;59.10;99583.91;5072048;28;20226;-62
2023/04/22 00:37:46;;;;;;;3.93;1.70;;;;;;;18.42;58.92;99588.81;5070237;28;20236;-62
2023/04/22 00:40:12;;;;;;;3.83;1.90;;;;;;;18.38;59.17;99587.97;5070431;28;20550;-62
2023/04/22 00:42:37;;;;;;;2.77;1.63;;;;;;;18.40;58.97;99597.78;5074322;28;20614;-62
2023/04/22 00:45:03;;;;;;;2.33;1.53;;;;;;;18.41;59.31;99599.41;5082725;28;20565;-61
2023/04/22 00:47:29;;;;;;;2.03;1.43;;;;;;;18.40;59.10;99594.09;5075331;28;20289;-61
2023/04/22 00:49:54;;;;;;;3.10;1.30;;;;;;;18.38;58.93;99600.22;5053180;28;21101;-61
2023/04/22 00:52:20;;;;;;;3.37;1.60;;;;;;;18.39;59.00;99595.31;5069891;28;20242;-62
2023/04/22 00:54:45;;;;;;;3.00;1.73;;;;;;;18.38;59.33;99591.66;5072147;28;20276;-61
2023/04/22 00:57:11;;;;;;;2.60;1.67;;;;;;;18.39;58.99;99587.56;5069930;28;20167;-61
2023/04/22 00:59:36;;;;;;;2.73;1.50;;;;;;;18.40;58.98;99591.22;5070393;28;20263;-61
2023/04/22 01:02:02;;;;;;;2.30;1.20;;;;;;;18.39;59.20;99601.88;5089981;28;20533;-61
2023/04/22 01:04:28;;;;;;;3.07;1.50;;;;;;;18.39;59.07;99596.16;5078593;28;20913;-61
2023/04/22 01:06:53;;;;;;;3.43;1.80;;;;;;;18.38;59.18;99597.38;5020677;28;20530;-61
2023/04/22 01:09:21;;;;;;;2.60;1.70;;;;;;;18.39;59.15;99596.16;5069387;28;20717;-62
2023/04/22 01:11:47;;;;;;;2.30;1.60;;;;;;;18.39;58.98;99595.31;5070960;28;20190;-62
2023/04/22 01:14:12;;;;;;;3.13;1.80;;;;;;;18.39;58.93;99601.03;5071413;28;21131;-61
2023/04/22 01:16:38;;;;;;;4.10;2.20;;;;;;;18.36;59.21;99596.13;5069548;28;20218;-61
2023/04/22 01:19:05;;;;;;;3.13;2.00;;;;;;;18.41;59.12;99599.41;5053655;28;20210;-61
2023/04/22 01:21:32;;;;;;;3.80;1.90;;;;;;;18.38;59.22;99594.50;5051339;28;20183;-61
2023/04/22 01:23:59;;;;;;;2.73;1.60;;;;;;;18.37;59.29;99592.84;5051826;28;20459;-61
2023/04/22 01:26:25;;;;;;;2.50;1.50;;;;;;;18.40;59.39;99592.06;5069498;28;20788;-61
2023/04/22 01:28:50;;;;;;;2.87;1.70;;;;;;;18.38;59.14;99590.81;5072571;28;20433;-61
2023/04/22 01:31:15;;;;;;;4.33;1.70;;;;;;;18.39;58.97;99601.03;5071492;28;20195;-61
2023/04/22 01:33:41;;;;;;;3.10;1.50;;;;;;;18.40;59.28;99608.38;5078716;28;20197;-62
2023/04/22 01:36:07;;;;;;;2.90;1.40;;;;;;;18.37;58.92;99601.41;5089753;28;20169;-62
2023/04/22 01:38:33;;;;;;;4.07;2.13;;;;;;;18.40;59.04;99603.50;5089264;28;20644;-62
2023/04/22 01:41:01;;;;;;;2.67;1.40;;;;;;;18.39;59.23;99606.75;5069539;28;20190;-61
2023/04/22 01:43:29;;;;;;;3.17;1.73;;;;;;;18.38;59.15;99603.09;5047833;28;20497;-62
2023/04/22 01:45:55;;;;;;;2.63;1.83;;;;;;;18.37;59.23;99601.41;5088573;28;20440;-61
2023/04/22 01:48:20;;;;;;;2.63;1.63;;;;;;;18.35;59.29;99605.88;5088488;28;20491;-61
2023/04/22 01:50:46;;;;;;;2.70;1.77;;;;;;;18.37;59.15;99597.75;5074445;28;20191;-62
2023/04/22 01:53:11;;;;;;;2.77;1.60;;;;;;;18.39;59.31;99589.59;5072593;28;20183;-61
2023/04/22 01:55:37;;;;;;;3.13;1.73;;;;;;;18.38;59.11;99594.50;5069021;28;20202;-62
2023/04/22 01:58:03;;;;;;;2.53;1.50;;;;;;;18.37;59.28;99592.84;5069104;28;20171;-61
2023/04/22 02:00:29;;;;;;;2.53;1.70;;;;;;;18.37;59.25;99610.00;5069121;28;20179;-62
2023/04/22 02:02:54;;;;;;;3.07;1.77;;;;;;;18.39;59.04;99606.75;5073330;28;20236;-61
2023/04/22 02:05:19;;;;;;;2.80;1.70;;;;;;;18.34;59.20;99609.97;5037737;28;20544;-62
2023/04/22 02:07:45;;;;;;;3.73;1.60;;;;;;;18.38;59.18;99616.53;5073069;28;20801;-62
2023/04/22 02:10:11;;;;;;;3.20;2.00;;;;;;;18.37;59.13;99614.91;5072815;28;20234;-62
2023/04/22 02:12:36;;;;;;;2.40;1.60;;;;;;;18.37;59.27;99621.44;5084159;28;20239;-62
2023/04/22 02:15:02;;;;;;;2.60;1.67;;;;;;;18.35;59.16;99618.16;5091566;28;20260;-62
2023/04/22 02:17:27;;;;;;;2.30;1.37;;;;;;;18.39;59.14;99619.00;5091094;28;20226;-62
2023/04/22 02:19:53;;;;;;;3.03;1.60;;;;;;;18.34;59.33;99610.81;5072883;28;20171;-62
2023/04/22 02:22:18;;;;;;;2.80;2.00;;;;;;;18.35;59.18;99612.44;5087238;28;20574;-62
2023/04/22 02:24:44;;;;;;;2.40;1.50;;;;;;;18.38;59.22;99616.53;5066953;28;20201;-62
2023/04/22 02:27:10;;;;;;;3.23;1.93;;;;;;;18.37;59.30;99617.75;5057085;28;20228;-61
2023/04/22 02:29:35;;;;;;;2.60;1.80;;;;;;;18.36;59.10;99619.78;5072214;28;20175;-62
2023/04/22 02:32:00;;;;;;;2.57;1.50;;;;;;;18.38;59.04;99617.38;5038142;28;20183;-62
2023/04/22 02:34:26;;;;;;;3.00;1.70;;;;;;;18.35;59.41;99628.75;5059792;28;20213;-62
2023/04/22 02:36:51;;;;;;;2.60;1.63;;;;;;;18.35;59.30;99623.03;5074519;28;20178;-62
2023/04/22 02:39:17;;;;;;;2.20;1.40;;;;;;;18.35;59.07;99631.59;5068158;28;20206;-62
2023/04/22 02:41:42;;;;;;;2.97;1.77;;;;;;;18.37;59.10;99632.06;5072538;28;20175;-62
2023/04/22 02:44:08;;;;;;;3.20;1.93;;;;;;;18.34;59.04;99642.25;5074436;28;20656;-62
2023/04/22 02:46:33;;;;;;;2.50;1.60;;;;;;;18.38;59.27;99636.53;5072493;28;20159;-62
2023/04/22 02:48:59;;;;;;;3.63;1.77;;;;;;;18.35;59.11;99635.31;5073960;28;20187;-61
2023/04/22 02:51:25;;;;;;;2.53;1.30;;;;;;;18.35;59.31;99621.00;5072322;28;20545;-62
2023/04/22 02:53:51;;;;;;;3.23;1.87;;;;;;;18.36;58.88;99630.41;5077312;28;20602;-62
2023/04/22 02:56:16;;;;;;;2.90;1.43;;;;;;;18.36;59.08;99636.13;5037849;28;20449;-61
2023/04/22 02:58:42;;;;;;;3.53;1.37;;;;;;;18.34;59.29;99645.09;5051792;28;20430;-61
2023/04/22 03:01:07;;;;;;;3.37;1.90;;;;;;;18.36;59.12;99642.66;5062931;28;20550;-62
2023/04/22 03:03:33;;;;;;;3.00;1.57;;;;;;;18.33;59.17;99648.34;5073384;28;20187;-62
2023/04/22 03:05:58;;;;;;;2.60;1.63;;;;;;;18.32;59.04;99650.38;5075924;28;20167;-61
2023/04/22 03:08:24;;;;;;;2.87;1.57;;;;;;;18.33;59.19;99643.47;5071867;28;20230;-62
2023/04/22 03:10:50;;;;;;;2.70;1.40;;;;;;;18.33;59.21;99632.03;5048750;28;20250;-62
2023/04/22 03:13:15;;;;;;;2.40;1.70;;;;;;;18.38;58.87;99630.81;5033653;28;20180;-62
2023/04/22 03:15:40;;;;;;;2.67;1.40;;;;;;;18.34;59.33;99633.66;5051828;28;20554;-62
2023/04/22 03:18:06;;;;;;;2.80;1.60;;;;;;;18.32;59.20;99633.22;5062448;28;20534;-62
2023/04/22 03:20:32;;;;;;;2.50;1.63;;;;;;;18.35;58.90;99646.72;5091827;28;20174;-61
2023/04/22 03:22:57;;;;;;;2.40;1.53;;;;;;;18.35;59.44;99652.44;5091730;28;20183;-62
2023/04/22 03:25:23;;;;;;;2.53;1.40;;;;;;;18.34;59.27;99656.53;5088450;28;20630;-62
2023/04/22 03:27:48;;;;;;;3.03;1.90;;;;;;;18.32;59.14;99647.50;5077085;28;20203;-62
2023/04/22 03:30:14;;;;;;;2.67;1.50;;;;;;;18.33;59.31;99652.03;5071765;28;20179;-61
2023/04/22 03:32:39;;;;;;;2.93;1.53;;;;;;;18.36;59.07;99659.00;5071792;28;20182;-62
2023/04/22 03:35:05;;;;;;;2.80;1.57;;;;;;;18.34;59.23;99641.41;5072102;28;20647;-62
2023/04/22 03:37:31;;;;;;;4.70;1.50;;;;;;;18.36;59.02;99636.13;5083186;28;20748;-61
2023/04/22 03:39:56;;;;;;;4.50;1.73;;;;;;;18.33;59.29;99629.16;5081253;28;20425;-62
2023/04/22 03:42:22;;;;;;;2.40;1.30;;;;;;;18.33;59.10;99623.47;5071879;28;20717;-62
2023/04/22 03:44:47;;;;;;;3.20;1.70;;;;;;;18.34;59.28;99635.69;5073888;28;20649;-62
2023/04/22 03:47:13;;;;;;;2.73;1.40;;;;;;;18.33;59.19;99639.78;5071355;28;20958;-62
2023/04/22 03:49:38;;;;;;;2.83;1.60;;;;;;;18.37;58.88;99638.56;5070897;28;20183;-62
2023/04/22 03:52:03;;;;;;;3.40;1.80;;;;;;;18.34;59.14;99638.53;5070822;28;20179;-62
2023/04/22 03:54:29;;;;;;;3.20;1.87;;;;;;;18.35;58.87;99635.31;5067998;28;20225;-62
2023/04/22 03:56:54;;;;;;;3.30;1.90;;;;;;;18.34;58.87;99627.13;5091024;28;20206;-62
2023/04/22 03:59:20;;;;;;;2.37;1.40;;;;;;;18.31;59.24;99622.97;5082572;28;20183;-62
2023/04/22 04:01:45;;;;;;;2.50;1.47;;;;;;;18.34;59.32;99622.22;5070408;28;20183;-62
2023/04/22 04:04:11;;;;;;;2.40;1.30;;;;;;;18.32;59.01;99618.94;5052810;28;20170;-62
2023/04/22 04:06:36;;;;;;;3.27;1.80;;;;;;;18.33;59.38;99617.75;5070330;28;20179;-61
2023/04/22 04:09:02;;;;;;;4.83;1.70;;;;;;;18.31;59.30;99628.69;5071091;28;20234;-61
2023/04/22 04:11:28;;;;;;;1.83;1.23;;;;;;;18.29;58.99;99628.28;5069514;28;20279;-62
2023/04/22 04:13:54;;;;;;;2.80;1.43;;;;;;;18.33;59.24;99625.47;5078630;28;20789;-61
2023/04/22 04:16:19;;;;;;;3.07;1.50;;;;;;;18.34;59.28;99624.25;5089441;28;20212;-62
2023/04/22 04:18:45;;;;;;;2.40;1.60;;;;;;;18.32;58.91;99620.97;5070681;28;20257;-62
2023/04/22 04:21:10;;;;;;;7.23;2.23;;;;;;;18.30;59.14;99615.63;5090128;28;20163;-61
2023/04/22 04:23:36;;;;;;;2.57;1.47;;;;;;;18.33;59.14;99617.75;5086456;28;20186;-62
2023/04/22 04:26:04;;;;;;;3.23;1.80;;;;;;;18.34;59.00;99610.81;5090012;28;20186;-62
2023/04/22 04:28:31;;;;;;;3.10;1.40;;;;;;;18.28;59.32;99603.78;5090458;28;20557;-62
2023/04/22 04:30:57;;;;;;;2.23;1.30;;;;;;;18.33;59.23;99608.34;5069763;28;20419;-62
2023/04/22 04:33:23;;;;;;;2.53;1.57;;;;;;;18.29;59.09;99608.28;5085313;28;20487;-62
2023/04/22 04:35:49;;;;;;;2.90;1.70;;;;;;;18.31;59.08;99600.13;5088940;28;20459;-62
2023/04/22 04:38:14;;;;;;;2.73;1.70;;;;;;;18.33;58.97;99608.34;5051734;28;20186;-62
2023/04/22 04:40:44;;;;;;;2.23;1.50;;;;;;;18.31;59.31;99605.03;5052208;28;20186;-62
2023/04/22 04:43:09;;;;;;;2.20;1.13;;;;;;;18.34;59.41;99613.66;5069574;28;20179;-61
2023/04/22 04:45:38;;;;;;;3.30;1.50;;;;;;;18.35;59.07;99608.75;5055578;28;20432;-62
2023/04/22 04:48:05;;;;;;;5.13;2.30;;;;;;;18.33;59.11;99609.16;5052787;28;20183;-62
2023/04/22 04:50:31;;;;;;;3.47;2.07;;;;;;;18.34;59.20;99610.81;5069839;28;20421;-61
2023/04/22 04:52:57;;;;;;;2.43;1.40;;;;;;;18.33;59.04;99609.16;5072649;28;20444;-62
2023/04/22 04:55:22;;;;;;;2.97;1.80;;;;;;;18.35;58.99;99612.44;5090195;28;20202;-61
2023/04/22 04:57:48;;;;;;;3.00;1.70;;;;;;;18.32;58.82;99612.38;5061617;28;20190;-63
2023/04/22 05:00:13;;;;;;;5.77;2.00;;;;;;;18.32;59.44;99609.53;5071871;28;20243;-62
2023/04/22 05:02:39;;;;;;;6.60;1.60;;;;;;;18.32;59.23;99618.09;5087843;28;20200;-62
2023/04/22 05:05:05;;;;;;;3.20;1.57;;;;;;;18.35;59.27;99614.47;5070203;28;20241;-62
2023/04/22 05:07:31;;;;;;;2.33;1.57;;;;;;;18.33;59.14;99611.19;5084447;28;20202;-62
2023/04/22 05:09:56;;;;;;;2.60;1.60;;;;;;;18.32;59.07;99616.06;5018480;28;20479;-63
2023/04/22 05:12:22;;;;;;;2.53;1.60;;;;;;;18.32;58.88;99618.94;5053971;28;20194;-62
2023/04/22 05:14:47;;;;;;;2.37;1.67;;;;;;;18.30;59.31;99624.19;5069963;28;20199;-62
2023/04/22 05:17:13;;;;;;;3.00;1.73;;;;;;;18.33;59.14;99626.31;5070184;28;20179;-62
2023/04/22 05:19:39;;;;;;;2.30;1.60;;;;;;;18.31;58.93;99625.84;5069744;28;20186;-63
2023/04/22 05:22:06;;;;;;;3.20;1.90;;;;;;;18.30;58.95;99618.50;5071432;28;20187;-62
2023/04/22 05:24:32;;;;;;;2.77;2.03;;;;;;;18.36;58.98;99624.69;5070549;28;20175;-62
2023/04/22 05:26:57;;;;;;;2.53;1.67;;;;;;;18.33;58.98;99631.19;5051815;28;21109;-62
2023/04/22 05:29:22;;;;;;;4.33;1.63;;;;;;;18.32;59.13;99635.25;5051308;28;20651;-61
2023/04/22 05:31:48;;;;;;;2.67;1.40;;;;;;;18.33;59.21;99632.03;5082657;28;20195;-63
2023/04/22 05:34:13;;;;;;;2.43;1.33;;;;;;;18.34;59.12;99639.38;5069969;28;20194;-62
2023/04/22 05:36:39;;;;;;;3.30;1.63;;;;;;;18.34;59.13;99639.38;5037712;28;20217;-62
2023/04/22 05:39:05;;;;;;;2.30;1.60;;;;;;;18.34;58.87;99645.09;5073745;28;20182;-61
2023/04/22 05:41:31;;;;;;;2.33;1.40;;;;;;;18.34;59.11;99641.41;5071740;28;20205;-62
2023/04/22 05:43:56;;;;;;;2.57;1.50;;;;;;;18.31;59.13;99640.13;5073319;28;20981;-62
2023/04/22 05:46:22;;;;;;;2.57;1.77;;;;;;;18.35;58.85;99645.91;5057576;28;20191;-61
2023/04/22 05:48:48;;;;;;;2.60;1.50;;;;;;;18.32;59.11;99653.22;5033925;28;20236;-62
2023/04/22 05:51:13;;;;;;;3.93;1.80;;;;;;;18.35;58.79;99658.16;5072185;28;20163;-62
2023/04/22 05:53:38;;;;;;;2.80;1.60;;;;;;;18.36;58.93;99656.13;5072103;28;20167;-63
2023/04/22 05:56:04;;;;;;;2.43;1.57;;;;;;;18.34;58.90;99661.41;5073399;28;20609;-61
2023/04/22 05:58:30;;;;;;;2.50;1.83;;;;;;;18.34;58.75;99658.56;5072938;28;20240;-62
2023/04/22 06:00:55;;;;;;;2.97;1.67;;;;;;;18.36;58.83;99659.78;5074938;28;20183;-62
2023/04/22 06:03:21;;;;;;;3.00;1.50;;;;;;;18.34;59.17;99649.97;5092129;28;20239;-62
2023/04/22 06:05:46;;;;;;;2.60;1.50;;;;;;;18.35;59.00;99657.31;5077924;28;20194;-62
2023/04/22 06:08:11;;;;;;;4.03;1.80;;;;;;;18.32;58.95;99646.66;5071738;28;20253;-63
2023/04/22 06:10:37;;;;;;;2.93;1.90;;;;;;;18.33;58.98;99649.19;5077795;28;20288;-62
2023/04/22 06:13:02;;;;;;;3.40;1.90;;;;;;;18.31;58.89;99653.63;5092422;28;20182;-63
2023/04/22 06:15:28;;;;;;;2.67;1.73;;;;;;;18.33;58.97;99652.03;5088477;28;20272;-62
2023/04/22 06:17:53;;;;;;;2.23;1.63;;;;;;;18.34;59.28;99656.53;5092046;28;20517;-62
2023/04/22 06:20:19;;;;;;;2.00;1.20;;;;;;;18.33;58.95;99649.19;5092922;28;20182;-62
2023/04/22 06:22:44;;;;;;;2.00;1.33;;;;;;;18.36;58.95;99642.66;5074563;28;20219;-62
2023/04/22 06:25:10;;;;;;;2.73;1.70;;;;;;;18.35;58.85;99651.63;5069590;28;20205;-62
2023/04/22 06:27:36;;;;;;;3.30;1.63;;;;;;;18.33;59.09;99660.59;5075391;28;20190;-62
2023/04/22 06:30:02;;;;;;;2.30;1.50;;;;;;;18.34;58.72;99656.53;5054785;28;20181;-62
2023/04/22 06:32:28;;;;;;;2.70;1.30;;;;;;;18.38;58.84;99656.56;5074289;28;20448;-61
2023/04/22 06:34:53;;;;;;;3.07;1.73;;;;;;;18.35;58.88;99655.31;5072055;28;20543;-61
2023/04/22 06:37:19;;;;;;;2.40;1.47;;;;;;;18.35;58.95;99663.88;5054464;28;20171;-61
2023/04/22 06:39:44;;;;;;;2.40;1.47;;;;;;;18.34;59.20;99662.25;5061237;28;20191;-61
2023/04/22 06:42:09;;;;;;;3.00;1.80;;;;;;;18.37;59.15;99660.63;5053363;28;20194;-62
2023/04/22 06:44:35;;;;;;;2.70;1.27;;;;;;;18.35;58.74;99663.88;5071586;28;20197;-62
2023/04/22 06:47:00;;;;;;;2.20;1.33;;;;;;;18.35;59.21;99671.63;5080998;28;20190;-62
2023/04/22 06:49:26;;;;;;;2.43;1.57;;;;;;;18.37;58.71;99678.56;5055465;28;20191;-62
2023/04/22 06:51:51;;;;;;;2.20;1.40;;;;;;;18.35;58.84;99681.03;5070886;28;20178;-62
2023/04/22 06:54:17;;;;;;;2.03;1.43;;;;;;;18.33;58.68;99683.47;5071229;28;20352;-61
2023/04/22 06:56:42;;;;;;;2.40;1.40;;;;;;;18.37;58.96;99686.34;5071275;28;20291;-61
2023/04/22 06:59:08;;;;;;;2.20;1.50;;;;;;;18.34;59.20;99685.09;5070350;28;20204;-61
2023/04/22 07:01:33;;;;;;;2.43;1.37;;;;;;;18.35;59.44;99683.88;5092084;28;20174;-60
2023/04/22 07:03:59;;;;;;;2.20;1.27;;;;;;;18.35;58.94;99680.19;5087861;28;20186;-61
2023/04/22 07:06:24;;;;;;;2.47;1.40;;;;;;;18.35;58.74;99674.47;5087591;28;20182;-61
2023/04/22 07:08:49;;;;;;;2.47;1.50;;;;;;;18.34;59.04;99670.81;5070949;28;20230;-61
2023/04/22 07:11:15;;;;;;;3.13;1.70;;;;;;;18.35;58.92;99672.44;5071782;28;20171;-61
2023/04/22 07:13:40;;;;;;;2.40;1.40;;;;;;;18.36;59.04;99671.22;5072399;28;20187;-61
2023/04/22 07:16:06;;;;;;;2.10;1.40;;;;;;;18.36;58.72;99676.13;5074601;28;20195;-61
2023/04/22 07:18:31;;;;;;;2.27;1.30;;;;;;;18.35;59.14;99666.72;5070102;28;20172;-62
2023/04/22 07:20:57;;;;;;;3.10;1.67;;;;;;;18.35;59.13;99672.44;5070071;28;20175;-62
2023/04/22 07:23:22;;;;;;;2.20;1.33;;;;;;;18.35;58.76;99666.72;5072139;28;20182;-62
2023/04/22 07:25:48;;;;;;;3.03;1.50;;;;;;;18.35;58.67;99668.75;5046268;28;20268;-62
2023/04/22 07:28:13;;;;;;;2.30;1.50;;;;;;;18.34;59.23;99679.38;5079782;28;20175;-61
2023/04/22 07:30:39;;;;;;;2.37;1.50;;;;;;;18.36;58.88;99665.50;5072798;28;20194;-62
2023/04/22 07:33:04;;;;;;;2.50;1.60;;;;;;;18.35;59.06;99674.47;5060294;28;20194;-62
2023/04/22 07:35:30;;;;;;;2.40;1.30;;;;;;;18.39;58.83;99664.72;5071371;28;20195;-61
2023/04/22 07:37:55;;;;;;;2.00;1.20;;;;;;;18.35;58.92;99658.16;5069839;28;20198;-61
2023/04/22 07:40:21;;;;;;;1.93;1.40;;;;;;;18.38;58.73;99657.38;5074432;28;20212;-61
2023/04/22 07:42:46;;;;;;;2.13;1.37;;;;;;;18.38;58.90;99656.56;5051624;28;20240;-61
2023/04/22 07:45:12;;;;;;;2.53;1.53;;;;;;;18.38;58.93;99650.84;5070979;28;20167;-61
2023/04/22 07:47:38;;;;;;;2.47;1.27;;;;;;;18.37;58.64;99652.06;5072751;28;20198;-61
2023/04/22 07:50:03;;;;;;;2.63;1.40;;;;;;;18.36;59.04;99650.41;5072345;28;20175;-62
2023/04/22 07:52:29;;;;;;;2.73;1.53;;;;;;;18.37;59.07;99644.28;5053085;28;20222;-62
2023/04/22 07:54:55;;;;;;;2.80;1.60;;;;;;;18.38;59.03;99639.41;5081515;28;20206;-62
2023/04/22 07:57:21;;;;;;;2.20;1.30;;;;;;;18.37;59.10;99632.06;5075470;28;20178;-62
2023/04/22 07:59:47;;;;;;;2.70;1.50;;;;;;;18.38;58.79;99634.53;5068791;28;20206;-62
2023/04/22 08:02:13;;;;;;;2.77;1.70;;;;;;;18.38;58.60;99630.81;5071272;28;20445;-62
2023/04/22 08:04:38;;;;;;;2.63;1.47;;;;;;;18.38;59.13;99640.22;5069228;28;20420;-62
2023/04/22 08:07:04;;;;;;;2.40;1.40;;;;;;;18.38;58.85;99640.22;5073315;28;20206;-61
2023/04/22 08:09:29;;;;;;;3.30;1.87;;;;;;;18.37;58.82;99627.13;5081053;28;20234;-62
2023/04/22 08:11:55;;;;;;;2.20;1.30;;;;;;;18.40;58.74;99643.50;5068600;28;20194;-63
2023/04/22 08:14:21;;;;;;;2.23;1.40;;;;;;;18.38;59.05;99637.38;5084026;28;20244;-62
2023/04/22 08:16:46;;;;;;;2.10;1.10;;;;;;;18.38;59.08;99634.53;5071285;28;20706;-62
2023/04/22 08:19:11;;;;;;;2.43;1.53;;;;;;;18.38;58.87;99640.22;5085666;28;20201;-62
2023/04/22 08:21:37;;;;;;;2.17;1.30;;;;;;;18.38;59.17;99648.81;5072156;28;20181;-61
2023/04/22 08:24:02;;;;;;;2.20;1.27;;;;;;;18.38;58.80;99634.53;5087967;28;20175;-61
2023/04/22 08:26:28;;;;;;;2.43;1.33;;;;;;;18.38;59.12;99637.38;5052255;28;20638;-62
2023/04/22 08:28:53;;;;;;;2.73;1.57;;;;;;;18.37;58.92;99632.84;5070366;28;20175;-62
2023/04/22 08:31:19;;;;;;;2.43;1.27;;;;;;;18.37;59.02;99638.56;5054710;28;20195;-61
2023/04/22 08:33:44;;;;;;;2.63;1.47;;;;;;;18.36;59.17;99631.22;5052406;28;20244;-62
2023/04/22 08:36:10;;;;;;;2.30;1.50;;;;;;;18.41;58.83;99633.72;5069817;28;20206;-61
2023/04/22 08:38:36;;;;;;;2.33;1.23;;;;;;;18.42;58.89;99634.53;5053256;28;20193;-62
2023/04/22 08:41:01;;;;;;;2.90;1.40;;;;;;;18.38;58.88;99637.38;5087142;28;20609;-62
2023/04/22 08:43:27;;;;;;;2.70;1.63;;;;;;;18.40;58.92;99636.97;5071005;28;20606;-61
2023/04/22 08:45:52;;;;;;;2.20;1.40;;;;;;;18.41;58.96;99628.00;5084309;28;20631;-62
2023/04/22 08:48:18;;;;;;;2.73;1.23;;;;;;;18.40;59.01;99628.38;5071253;28;20614;-62
2023/04/22 08:50:43;;;;;;;2.43;1.10;;;;;;;18.37;58.68;99632.06;5088698;28;20193;-62
2023/04/22 08:53:09;;;;;;;2.10;1.40;;;;;;;18.41;58.67;99616.56;5068804;28;20209;-62
2023/04/22 08:55:35;;;;;;;2.40;1.23;;;;;;;18.43;58.70;99619.88;5071049;28;20689;-62
2023/04/22 08:58:04;;;;;;;2.10;1.27;;;;;;;18.48;58.43;99610.91;5050901;28;20534;-62
2023/04/22 09:00:31;;;;;;;2.23;1.40;;;;;;;18.45;58.51;99617.41;5069918;28;20232;-62
2023/04/22 09:02:57;;;;;;;3.70;1.70;;;;;;;18.41;58.46;99616.56;5053560;28;20472;-61
2023/04/22 09:05:23;;;;;;;2.77;1.50;;;;;;;18.42;58.81;99617.41;5030829;28;20509;-62
2023/04/22 09:07:49;;;;;;;2.60;1.77;;;;;;;18.43;58.71;99613.31;5059885;28;20453;-62
2023/04/22 09:10:14;;;;;;;2.33;1.23;;;;;;;18.47;58.55;99614.16;5083031;28;20468;-62
2023/04/22 09:12:40;;;;;;;2.13;1.20;;;;;;;18.45;58.39;99603.13;5088700;28;20186;-63
2023/04/22 09:15:06;;;;;;;4.30;1.73;;;;;;;18.50;58.39;99605.63;5061874;28;20238;-63
2023/04/22 09:17:33;;;;;;;2.60;1.20;;;;;;;18.48;58.76;99605.19;5050201;28;20179;-63
2023/04/22 09:19:59;;;;;;;2.47;1.50;;;;;;;18.48;58.38;99605.19;5068768;28;20435;-62
2023/04/22 09:22:28;;;;;;;2.57;1.50;;;;;;;18.48;58.25;99599.47;5071678;28;20400;-63
2023/04/22 09:24:53;;;;;;;2.57;1.40;;;;;;;18.47;58.72;99588.44;5075890;28;20433;-62
2023/04/22 09:27:20;;;;;;;2.30;1.60;;;;;;;18.44;58.50;99587.19;5051457;28;20839;-62
2023/04/22 09:29:49;;;;;;;3.57;1.80;;;;;;;18.46;58.52;99587.59;5050826;28;20186;-62
2023/04/22 09:32:15;;;;;;;2.47;1.30;;;;;;;18.46;58.74;99589.66;5070789;28;20406;-63
2023/04/22 09:34:51;;;;;;;2.70;1.57;;;;;;;18.44;58.49;99578.63;5065335;28;20458;-63
2023/04/22 09:37:23;;;;;;;3.30;1.27;;;;;;;18.44;58.47;99580.66;5070855;28;20408;-63
2023/04/22 09:39:49;;;;;;;2.27;1.20;;;;;;;18.44;58.61;99572.06;5077921;28;20433;-63
2023/04/22 09:42:15;;;;;;;2.30;1.50;;;;;;;18.46;58.47;99578.22;5070750;28;20904;-63
2023/04/22 09:44:41;;;;;;;3.00;1.80;;;;;;;18.46;58.55;99575.38;5030682;28;20176;-62
2023/04/22 09:47:07;;;;;;;2.23;1.33;;;;;;;18.46;58.57;99581.09;5030510;28;20483;-62
2023/04/22 09:49:36;;;;;;;2.83;1.50;;;;;;;18.46;58.53;99576.19;5070885;28;20179;-62
2023/04/22 09:52:02;;;;;;;2.33;1.10;;;;;;;18.45;58.71;99574.53;5049907;28;20440;-63
2023/04/22 09:54:27;;;;;;;2.10;1.23;;;;;;;18.47;58.84;99579.88;5056802;28;20452;-63
2023/04/22 09:56:53;;;;;;;2.33;1.33;;;;;;;18.46;58.43;99583.94;5056148;28;20519;-63
2023/04/22 09:59:23;;;;;;;3.23;1.60;;;;;;;18.44;58.59;99575.75;5063839;28;20518;-62
2023/04/22 10:01:59;;;;;;;2.20;1.40;;;;;;;18.44;58.55;99574.94;5089377;28;20162;-63
2023/04/22 10:04:25;;;;;;;2.47;1.40;;;;;;;18.49;58.39;99566.81;5079852;28;20433;-62
2023/04/22 10:06:54;;;;;;;2.07;1.30;;;;;;;18.44;58.57;99581.47;5068335;28;20451;-63
2023/04/22 10:09:22;;;;;;;2.80;1.30;;;;;;;18.44;58.61;99580.66;5067808;28;20250;-62
2023/04/22 10:11:52;;;;;;;2.33;1.50;;;;;;;18.53;58.28;99576.25;5052296;28;20429;-63
2023/04/22 10:14:21;;;;;;;2.33;1.23;;;;;;;18.49;58.28;99571.69;5066966;28;20501;-62
2023/04/22 10:16:46;;;;;;;2.00;1.17;;;;;;;18.52;58.53;99588.88;5048777;28;20457;-62
2023/04/22 10:19:22;;;;;;;1.93;1.20;;;;;;;18.57;58.25;99581.97;5069346;28;20971;-60
2023/04/22 10:21:49;;;;;;;4.37;1.60;;;;;;;18.55;58.40;99581.53;5068167;28;20183;-59
2023/04/22 10:24:16;;;;;;;2.57;1.33;;;;;;;18.56;58.38;99588.91;5036758;28;20536;-62
2023/04/22 10:26:51;;;;;;;1.80;1.13;;;;;;;18.51;58.56;99589.28;5073872;28;20532;-61
2023/04/22 10:29:18;;;;;;;2.80;1.33;;;;;;;18.46;58.64;99589.66;5054387;28;20425;-62
2023/04/22 10:32:04;;;;;;;2.40;1.50;;;;;;;18.45;58.69;99594.56;5081297;28;20954;-62
2023/04/22 10:34:32;;;;;;;3.87;1.60;;;;;;;18.48;58.48;99590.91;5079824;28;20461;-61
2023/04/22 10:36:59;;;;;;;3.70;1.60;;;;;;;18.51;58.41;99581.53;5072098;28;20449;-62
2023/04/22 10:39:25;;;;;;;2.57;1.50;;;;;;;18.53;58.52;99584.81;5040585;28;20520;-61
2023/04/22 10:42:06;;;;;;;2.53;1.20;;;;;;;18.54;58.55;99568.47;5062593;28;20433;-61
2023/04/22 10:44:50;;;;;;;2.10;1.20;;;;;;;18.53;58.39;99573.38;5058090;28;20494;-61
2023/04/22 10:47:31;;;;;;;2.37;1.23;;;;;;;18.55;58.27;99573.78;5061985;28;20430;-62
2023/04/22 10:50:23;;;;;;;2.17;1.40;;;;;;;18.57;58.43;99574.19;5051188;28;21070;-62
2023/04/22 10:52:58;;;;;;;2.60;1.53;;;;;;;18.59;58.41;99583.22;5066294;28;20428;-62
2023/04/22 10:55:24;;;;;;;2.70;1.43;;;;;;;18.58;57.98;99578.72;5033330;28;20472;-62
2023/04/22 10:57:50;;;;;;;2.57;1.43;;;;;;;18.59;58.12;99576.66;5042005;28;20441;-62
2023/04/22 11:00:26;;;;;;;2.80;1.40;;;;;;;18.58;58.38;99573.00;5092111;28;20567;-61
2023/04/22 11:02:52;;;;;;;4.23;1.30;;;;;;;18.58;58.42;99567.28;5069310;28;20431;-62
2023/04/22 11:05:22;;;;;;;2.10;1.20;;;;;;;18.56;58.48;99561.13;5067361;28;20429;-61
2023/04/22 11:07:48;;;;;;;2.73;1.50;;;;;;;18.72;56.99;99580.84;5074182;28;20462;-62
2023/04/22 11:10:30;;;;;;;6.93;2.10;;;;;;;18.73;53.88;99580.44;5058220;28;20552;-65
2023/04/22 11:12:56;;;;;;;5.40;2.10;;;;;;;18.70;53.96;99578.38;5008933;28;20440;-61
2023/04/22 11:15:21;;;;;;;12.83;2.70;;;;;;;18.72;53.41;99593.09;5050617;28;20470;-60
2023/04/22 11:17:51;;;;;;;9.07;2.93;;;;;;;18.80;52.54;99589.06;5051677;28;20175;-64
2023/04/22 11:20:17;;;;;;;7.97;2.70;;;;;;;18.83;52.33;99585.41;5013592;28;20172;-63
2023/04/22 11:22:44;;;;;;;3.90;2.13;;;;;;;18.79;51.96;99590.28;5049530;28;20444;-62
2023/04/22 11:25:09;;;;;;;7.70;2.20;;;;;;;18.93;50.79;99592.41;5036553;28;20279;-62
2023/04/22 11:27:36;;;;;;;4.40;2.13;;;;;;;18.92;50.33;99593.63;5053743;28;20431;-61
2023/04/22 11:30:18;;;;;;;5.93;2.73;;;;;;;18.88;50.51;99590.75;5050507;28;20250;-62